Etusivu
METAR-TAF:

METAR-TAF

Lentoasemat :

Sheldon Municipal Airport

Sheldon, Iowa, Yhdysvallat

Leveyspiiri: 43-13N, Pituuspiiri: 095-50W, korkeus merenpinnasta: 432 m

Tämänhetkinen sää

Tämä raportti tehtiin 15 minuuttia sitten, kello 11.35 UTC
Tuuli 6 kn kaakosta
Lämpötila 1°C
Kosteus 100%
Ilmanpaine 1006 hPa
Näkyvyys: 16.1 km
Hajonneita pilviä 6500 ft:n korkeudessa
Pilvistä 7500 ft:n korkeudessa

METAR: KSHL 181135Z AUTO 14006KT 10SM BKN065 OVC075 01/01 A2971 RMK AO2

Aika: 05:50 (11:50 UTC)


TAF: puuttuu

Säähavainnot ja -ennusteet yli 4000 lentoasemalta (METAR- ja TAF-raportit).

Käytössä olevat sääasemat on merkitty karttaan keltaisilla ja punaisilla pisteillä.

Aseta hiiri pisteen päälle nähdäksesi sääaseman nimen.

Klikkaa sitten nähdäksesi säähavainnot ja -ennusteet.

Kartan vaihtaminen: klikkaa mustalla rastilla varustettuja vihreitä pisteitä, niin voit zoomata sisään; viivalla varustettua vihreää pistettä, niin voit zoomata ulos tai vihreitä nuolia, niin pääset viereisille kartoille.


METAR-TAF: